createdAt,value
2018-10-04T00:02:05.909Z,5.00
2018-10-04T00:04:35.877Z,5.20
2018-10-04T00:07:05.667Z,4.50
2018-10-04T00:09:35.514Z,4.53
2018-10-04T00:12:05.407Z,5.40
2018-10-04T00:14:35.188Z,5.57
2018-10-04T00:17:05.184Z,5.43
2018-10-04T00:19:35.181Z,5.40
2018-10-04T00:22:05.034Z,5.50
2018-10-04T00:24:34.733Z,5.93
2018-10-04T00:27:04.675Z,5.30
2018-10-04T00:29:34.597Z,5.30
2018-10-04T00:32:04.422Z,5.03
2018-10-04T00:34:34.326Z,5.93
2018-10-04T00:37:04.326Z,5.17
2018-10-04T00:39:34.058Z,5.90
2018-10-04T00:42:03.776Z,6.27
2018-10-04T00:44:33.615Z,5.40
2018-10-04T00:47:03.441Z,5.30
2018-10-04T00:49:33.298Z,4.87
2018-10-04T00:52:02.998Z,5.17
2018-10-04T00:54:32.974Z,5.80
2018-10-04T00:57:02.726Z,5.70
2018-10-04T00:59:32.444Z,5.27
2018-10-04T01:02:02.224Z,5.35
2018-10-04T01:04:31.975Z,6.30
2018-10-04T01:07:01.670Z,5.37
2018-10-04T01:09:31.374Z,5.10
2018-10-04T01:12:01.092Z,5.30
2018-10-04T01:14:30.814Z,5.93
2018-10-04T01:17:00.518Z,5.63
2018-10-04T01:19:30.286Z,5.50
2018-10-04T01:21:59.999Z,5.70
2018-10-04T01:24:29.723Z,5.80
2018-10-04T01:26:59.514Z,5.90
2018-10-04T01:29:29.223Z,5.60
2018-10-04T01:31:58.960Z,6.00
2018-10-04T01:34:28.664Z,5.50
2018-10-04T01:36:58.388Z,5.87
2018-10-04T01:39:28.234Z,5.85
2018-10-04T01:41:57.924Z,5.10
2018-10-04T01:44:27.623Z,5.42
2018-10-04T01:46:57.339Z,4.65
2018-10-04T01:49:27.036Z,4.78
2018-10-04T01:51:56.724Z,5.45
2018-10-04T01:54:26.578Z,5.55
2018-10-04T01:56:56.552Z,5.40
2018-10-04T01:59:27.941Z,4.83
2018-10-04T02:01:57.641Z,5.20
2018-10-04T02:04:27.324Z,5.47
2018-10-04T02:06:57.137Z,5.50
2018-10-04T02:09:26.901Z,5.70
2018-10-04T02:11:56.600Z,5.58
2018-10-04T02:14:26.286Z,4.50
2018-10-04T02:16:56.085Z,4.23
2018-10-04T02:19:25.803Z,4.60
2018-10-04T02:21:55.528Z,4.77
2018-10-04T02:24:25.289Z,4.35
2018-10-04T02:26:55.279Z,4.43
2018-10-04T02:29:25.101Z,3.97
2018-10-04T02:31:55.031Z,4.60
2018-10-04T02:34:24.712Z,3.90
2018-10-04T02:36:54.521Z,4.57
2018-10-04T02:39:24.217Z,4.67
2018-10-04T02:41:53.937Z,3.80
2018-10-04T02:44:23.648Z,4.47
2018-10-04T02:46:53.313Z,4.35
2018-10-04T02:49:22.998Z,3.70
2018-10-04T02:51:52.659Z,3.98
2018-10-04T02:54:27.199Z,3.87
2018-10-04T02:56:59.547Z,4.00
2018-10-04T02:59:29.255Z,4.22
2018-10-04T03:01:58.972Z,4.03
2018-10-04T03:04:28.679Z,4.50
2018-10-04T03:06:58.367Z,4.40
2018-10-04T03:09:28.209Z,4.12
2018-10-04T03:11:57.881Z,4.60
2018-10-04T03:14:27.608Z,4.60
2018-10-04T03:16:57.327Z,3.58
2018-10-04T03:19:27.038Z,4.22
2018-10-04T03:21:56.746Z,3.95
2018-10-04T03:24:26.610Z,4.40
2018-10-04T03:26:56.285Z,4.70
2018-10-04T03:29:26.228Z,3.77
2018-10-04T03:31:55.929Z,4.55
2018-10-04T03:34:25.763Z,3.95
2018-10-04T03:36:55.510Z,4.10
2018-10-04T03:39:25.319Z,4.60
2018-10-04T03:41:55.009Z,3.73
2018-10-04T03:44:24.774Z,3.92
2018-10-04T03:46:54.410Z,4.00
2018-10-04T03:49:24.130Z,4.67
2018-10-04T03:51:53.838Z,4.25
2018-10-04T03:54:23.513Z,4.40
2018-10-04T03:56:53.204Z,4.50
2018-10-04T03:59:22.918Z,4.78
2018-10-04T04:01:52.627Z,4.55
2018-10-04T04:04:22.340Z,4.60
2018-10-04T04:06:52.058Z,4.90
2018-10-04T04:09:21.739Z,4.40
2018-10-04T04:11:51.593Z,4.50
2018-10-04T04:14:21.198Z,4.45
2018-10-04T04:16:50.912Z,4.40
2018-10-04T04:19:20.650Z,4.90
2018-10-04T04:21:50.431Z,4.97
2018-10-04T04:24:20.108Z,4.40
2018-10-04T04:26:49.798Z,4.17
2018-10-04T04:29:19.495Z,4.37
2018-10-04T04:31:49.304Z,5.00
2018-10-04T04:34:19.071Z,4.75
2018-10-04T04:36:48.791Z,4.60
2018-10-04T04:39:18.459Z,4.85
2018-10-04T04:41:48.164Z,4.43
2018-10-04T04:44:17.855Z,5.40
2018-10-04T04:46:47.595Z,5.10
2018-10-04T04:49:17.226Z,4.83
2018-10-04T04:51:46.986Z,4.80
2018-10-04T04:55:23.660Z,4.62
2018-10-04T04:57:54.331Z,4.40
2018-10-04T05:00:25.227Z,5.08
2018-10-04T05:02:55.362Z,4.40
2018-10-04T05:05:25.570Z,5.12
2018-10-04T05:07:56.454Z,4.50
2018-10-04T05:10:26.534Z,5.20
2018-10-04T05:12:57.090Z,4.70
2018-10-04T05:15:26.966Z,5.12
2018-10-04T05:17:56.726Z,5.37
2018-10-04T05:20:26.450Z,4.62
2018-10-04T05:22:56.161Z,5.03
2018-10-04T05:25:26.009Z,4.95
2018-10-04T05:27:55.825Z,5.13
2018-10-04T05:30:25.480Z,5.72
2018-10-04T05:32:55.171Z,4.60
2018-10-04T05:35:24.891Z,4.75
2018-10-04T05:37:54.569Z,4.80
2018-10-04T05:40:24.315Z,5.50
2018-10-04T05:42:54.132Z,5.60
2018-10-04T05:45:23.906Z,6.10
2018-10-04T05:47:53.561Z,6.20
2018-10-04T05:50:23.242Z,5.40
2018-10-04T05:52:53.052Z,4.95
2018-10-04T05:55:22.753Z,5.50
2018-10-04T05:57:52.438Z,5.70
2018-10-04T06:00:33.118Z,5.30
2018-10-04T06:03:02.924Z,6.80
2018-10-04T06:05:32.662Z,5.50
2018-10-04T06:08:02.715Z,6.30
2018-10-04T06:10:33.097Z,4.90
2018-10-04T06:13:02.811Z,5.70
2018-10-04T06:15:32.643Z,5.40
2018-10-04T06:18:02.255Z,7.35
2018-10-04T06:20:33.884Z,7.40
2018-10-04T06:23:03.657Z,8.45
2018-10-04T06:25:33.480Z,6.67
2018-10-04T06:28:03.198Z,6.40
2018-10-04T06:30:35.493Z,6.20
2018-10-04T06:33:05.259Z,6.90
2018-10-04T06:35:34.975Z,5.20
2018-10-04T06:38:04.662Z,6.05
2018-10-04T06:40:34.365Z,6.08
2018-10-04T06:43:04.113Z,5.50
2018-10-04T06:45:33.975Z,5.37
2018-10-04T06:48:03.690Z,7.75
2018-10-04T06:50:33.550Z,7.97
2018-10-04T06:53:03.326Z,7.40
2018-10-04T06:55:33.082Z,8.00
2018-10-04T06:58:02.812Z,7.53
2018-10-04T07:00:32.504Z,8.48
2018-10-04T07:03:02.218Z,9.08
2018-10-04T07:05:31.958Z,9.05
2018-10-04T07:08:01.790Z,9.90
2018-10-04T07:10:31.569Z,10.60
2018-10-04T07:13:01.336Z,10.57
2018-10-04T07:15:31.278Z,11.30
2018-10-04T07:18:00.974Z,12.55
2018-10-04T07:20:30.761Z,10.93
2018-10-04T07:23:00.446Z,11.93
2018-10-04T07:25:30.162Z,11.68
2018-10-04T07:27:59.867Z,11.57
2018-10-04T07:30:29.633Z,12.82
2018-10-04T07:32:59.360Z,14.68
2018-10-04T07:35:29.083Z,14.13
2018-10-04T07:37:58.806Z,15.37
2018-10-04T07:40:28.587Z,14.40
2018-10-04T07:42:58.323Z,15.13
2018-10-04T07:45:28.039Z,16.03
2018-10-04T07:47:57.751Z,14.73
2018-10-04T07:50:27.489Z,14.30
2018-10-04T07:52:57.238Z,14.83
2018-10-04T07:55:27.185Z,14.30
2018-10-04T07:57:56.952Z,14.13
2018-10-04T08:00:27.341Z,14.03
2018-10-04T08:02:57.748Z,14.73
2018-10-04T08:05:27.461Z,14.83
2018-10-04T08:07:58.225Z,15.10
2018-10-04T08:10:27.952Z,14.90
2018-10-04T08:12:57.679Z,16.30
2018-10-04T08:15:27.423Z,14.80
2018-10-04T08:17:57.104Z,14.90
2018-10-04T08:20:27.325Z,15.13
2018-10-04T08:22:57.015Z,15.13
2018-10-04T08:25:26.850Z,14.77
2018-10-04T08:27:56.509Z,15.80
2018-10-04T08:30:26.503Z,17.20
2018-10-04T08:32:56.303Z,14.80
2018-10-04T08:35:26.239Z,14.90
2018-10-04T08:37:56.012Z,14.70
2018-10-04T08:40:25.749Z,15.20
2018-10-04T08:42:55.461Z,15.00
2018-10-04T08:45:26.272Z,16.10
2018-10-04T08:47:56.109Z,16.13
2018-10-04T08:50:25.839Z,15.20
2018-10-04T08:52:55.623Z,14.10
2018-10-04T08:55:41.861Z,13.40
2018-10-04T08:58:11.590Z,14.30
2018-10-04T09:00:41.553Z,15.37
2018-10-04T09:03:11.644Z,15.67
2018-10-04T09:05:41.443Z,14.23
2018-10-04T09:08:11.150Z,14.93
2018-10-04T09:10:40.917Z,15.17
2018-10-04T09:13:11.687Z,16.40
2018-10-04T09:15:42.010Z,14.97
2018-10-04T09:18:11.786Z,15.20
2018-10-04T09:20:42.577Z,16.30
2018-10-04T09:23:12.308Z,15.33
2018-10-04T09:25:42.237Z,14.53
2018-10-04T09:28:15.375Z,15.60
2018-10-04T09:30:50.677Z,14.30
2018-10-04T09:33:21.811Z,16.63
2018-10-04T09:35:51.541Z,15.83
2018-10-04T09:38:21.411Z,16.60
2018-10-04T09:40:52.366Z,14.80
2018-10-04T09:43:22.408Z,15.83
2018-10-04T09:45:52.095Z,14.87
2018-10-04T09:48:21.888Z,14.20
2018-10-04T09:50:51.515Z,14.30
2018-10-04T09:53:22.249Z,13.97
2018-10-04T09:55:58.048Z,15.20
2018-10-04T09:58:27.875Z,14.20
2018-10-04T10:01:03.139Z,13.70
2018-10-04T10:03:32.901Z,14.30
2018-10-04T10:06:02.595Z,14.67
2018-10-04T10:08:32.315Z,12.27
2018-10-04T10:11:02.035Z,13.33
2018-10-04T10:13:31.750Z,13.60
2018-10-04T10:16:01.475Z,13.87
2018-10-04T10:18:31.219Z,12.83
2018-10-04T10:21:00.970Z,13.00
2018-10-04T10:23:31.968Z,11.70
2018-10-04T10:26:02.409Z,11.40
2018-10-04T10:28:32.911Z,11.83
2018-10-04T10:31:03.376Z,12.30
2018-10-04T10:33:33.635Z,12.83
2018-10-04T10:36:03.573Z,12.73
2018-10-04T10:38:33.485Z,11.83
2018-10-04T10:41:03.237Z,11.40
2018-10-04T10:43:33.261Z,11.93
2018-10-04T10:46:03.198Z,13.03
2018-10-04T10:48:33.582Z,11.10
2018-10-04T10:51:03.560Z,12.40
2018-10-04T10:53:34.093Z,11.60
2018-10-04T10:56:03.939Z,10.10
2018-10-04T10:58:33.685Z,10.27
2018-10-04T11:01:03.505Z,9.67
2018-10-04T11:03:33.238Z,10.50
2018-10-04T11:06:02.930Z,10.03
2018-10-04T11:08:32.821Z,9.33
2018-10-04T11:11:02.506Z,9.90
2018-10-04T11:13:32.253Z,11.27
2018-10-04T11:16:02.543Z,10.00
2018-10-04T11:18:32.262Z,10.00
2018-10-04T11:21:02.056Z,9.67
2018-10-04T11:23:32.265Z,9.30
2018-10-04T11:26:02.057Z,8.83
2018-10-04T11:28:32.061Z,8.80
2018-10-04T11:31:02.814Z,8.87
2018-10-04T11:33:32.549Z,8.90
2018-10-04T11:36:02.345Z,9.90
2018-10-04T11:38:32.091Z,7.17
2018-10-04T11:41:01.859Z,8.20
2018-10-04T11:43:32.261Z,8.37
2018-10-04T11:46:03.988Z,8.40
2018-10-04T11:48:35.565Z,8.60
2018-10-04T11:51:05.296Z,8.20
2018-10-04T11:53:35.236Z,7.33
2018-10-04T11:56:04.934Z,8.60
2018-10-04T11:58:35.490Z,9.17
2018-10-04T12:01:05.380Z,7.87
2018-10-04T12:06:11.067Z,12.58
2018-10-04T12:08:40.922Z,8.57
2018-10-04T12:11:10.621Z,7.13
2018-10-04T12:13:40.377Z,7.20
2018-10-04T12:16:10.069Z,8.00
2018-10-04T12:18:39.901Z,7.23
2018-10-04T12:21:10.373Z,6.90
2018-10-04T12:23:40.192Z,7.20
2018-10-04T12:26:09.886Z,5.77
2018-10-04T12:28:39.606Z,5.77
2018-10-04T12:31:09.377Z,5.70
2018-10-04T12:33:39.070Z,5.70
2018-10-04T12:36:08.842Z,6.00
2018-10-04T12:38:38.612Z,5.50
2018-10-04T12:41:08.428Z,6.60
2018-10-04T12:43:38.217Z,6.30
2018-10-04T12:46:08.195Z,5.37
2018-10-04T12:48:37.937Z,5.83
2018-10-04T12:51:07.750Z,5.93
2018-10-04T12:53:37.460Z,6.07
2018-10-04T12:56:07.185Z,5.80
2018-10-04T12:58:37.638Z,6.07
2018-10-04T13:01:07.478Z,5.53
2018-10-04T13:03:37.174Z,7.93
2018-10-04T13:06:07.960Z,5.70
2018-10-04T13:08:37.721Z,6.00
2018-10-04T13:11:07.577Z,6.40
2018-10-04T13:13:37.307Z,5.77
2018-10-04T13:16:07.438Z,5.33
2018-10-04T13:18:37.148Z,4.90
2018-10-04T13:21:07.115Z,5.37
2018-10-04T13:23:36.687Z,5.60
2018-10-04T13:26:06.639Z,4.90
2018-10-04T13:28:36.484Z,4.97
2018-10-04T13:31:06.477Z,6.00
2018-10-04T13:33:36.283Z,4.73
2018-10-04T13:36:05.975Z,4.93
2018-10-04T13:38:36.643Z,4.17
2018-10-04T13:41:06.675Z,3.97
2018-10-04T13:43:36.482Z,3.40
2018-10-04T13:46:06.333Z,4.13
2018-10-04T13:48:36.033Z,3.67
2018-10-04T13:51:06.269Z,4.37
2018-10-04T13:53:36.002Z,3.43
2018-10-04T13:56:05.717Z,3.63
2018-10-04T13:58:35.458Z,4.80
2018-10-04T14:01:05.195Z,3.73
2018-10-04T14:03:34.927Z,4.70
2018-10-04T14:06:04.779Z,5.20
2018-10-04T14:08:34.636Z,4.73
2018-10-04T14:11:04.344Z,5.20
2018-10-04T14:13:34.488Z,4.67
2018-10-04T14:16:04.355Z,5.33
2018-10-04T14:18:34.088Z,5.20
2018-10-04T14:21:03.809Z,5.57
2018-10-04T14:23:33.521Z,5.30
2018-10-04T14:26:03.937Z,4.57
2018-10-04T14:28:33.650Z,5.30
2018-10-04T14:31:03.441Z,5.10
2018-10-04T14:33:33.167Z,4.87
2018-10-04T14:36:02.881Z,5.90
2018-10-04T14:38:32.627Z,4.47
2018-10-04T14:41:02.340Z,4.40
2018-10-04T14:43:32.087Z,4.73
2018-10-04T14:46:01.868Z,5.07
2018-10-04T14:48:31.543Z,5.13
2018-10-04T14:51:01.392Z,6.03
2018-10-04T14:53:31.140Z,5.87
2018-10-04T14:56:00.899Z,5.47
2018-10-04T14:58:30.607Z,5.60
2018-10-04T15:01:00.387Z,5.40
2018-10-04T15:03:30.112Z,5.17
2018-10-04T15:05:59.842Z,5.87
2018-10-04T15:08:29.617Z,5.00
2018-10-04T15:10:59.414Z,4.97
2018-10-04T15:13:29.176Z,5.17
2018-10-04T15:15:58.932Z,5.37
2018-10-04T15:18:28.640Z,5.17
2018-10-04T15:20:58.470Z,5.17
2018-10-04T15:23:28.150Z,4.87
2018-10-04T15:25:57.899Z,4.40
2018-10-04T15:28:27.607Z,5.90
2018-10-04T15:30:57.449Z,5.03
2018-10-04T15:33:27.247Z,5.57
2018-10-04T15:35:57.010Z,6.43
2018-10-04T15:38:26.812Z,5.37
2018-10-04T15:40:56.541Z,4.30
2018-10-04T15:43:26.262Z,5.07
2018-10-04T15:45:56.042Z,4.83
2018-10-04T15:48:25.787Z,5.37
2018-10-04T15:50:55.504Z,4.80
2018-10-04T15:53:25.222Z,5.00
2018-10-04T15:55:54.931Z,6.33
2018-10-04T15:58:24.607Z,4.93
2018-10-04T16:00:54.319Z,4.40
2018-10-04T16:03:24.005Z,4.50
2018-10-04T16:05:53.801Z,4.60
2018-10-04T16:08:23.551Z,4.43
2018-10-04T16:10:53.372Z,4.53
2018-10-04T16:13:23.071Z,4.43
2018-10-04T16:15:54.712Z,4.00
2018-10-04T16:18:24.477Z,3.57
2018-10-04T16:20:54.187Z,4.10
2018-10-04T16:23:23.915Z,3.63
2018-10-04T16:25:53.660Z,4.40
2018-10-04T16:28:23.505Z,3.67
2018-10-04T16:30:53.295Z,3.90
2018-10-04T16:33:23.092Z,3.70
2018-10-04T16:35:52.957Z,3.37
2018-10-04T16:38:22.730Z,3.60
2018-10-04T16:40:53.387Z,3.37
2018-10-04T16:43:23.138Z,3.90
2018-10-04T16:45:53.112Z,3.80
2018-10-04T16:48:22.968Z,3.53
2018-10-04T16:50:52.823Z,4.47
2018-10-04T16:53:22.596Z,4.20
2018-10-04T16:55:52.306Z,3.80
2018-10-04T16:58:22.172Z,4.53
2018-10-04T17:00:52.128Z,3.90
2018-10-04T17:03:21.905Z,4.50
2018-10-04T17:05:51.891Z,5.60
2018-10-04T17:08:21.750Z,4.77
2018-10-04T17:10:51.552Z,5.33
2018-10-04T17:13:21.303Z,11.00
2018-10-04T17:15:51.251Z,9.77
2018-10-04T17:18:21.147Z,10.00
2018-10-04T17:20:51.007Z,7.00
2018-10-04T17:23:20.993Z,6.83
2018-10-04T17:25:51.240Z,6.07
2018-10-04T17:28:21.206Z,5.37
2018-10-04T17:30:51.170Z,4.80
2018-10-04T17:33:21.485Z,4.83
2018-10-04T17:35:51.508Z,5.27
2018-10-04T17:38:21.257Z,4.90
2018-10-04T17:40:51.030Z,4.73
2018-10-04T17:43:20.834Z,5.10
2018-10-04T17:45:50.782Z,5.20
2018-10-04T17:48:20.820Z,3.90
2018-10-04T17:50:50.585Z,4.23
2018-10-04T17:53:20.438Z,4.80
2018-10-04T18:25:36.153Z,5.80
2018-10-04T18:28:06.096Z,6.43
2018-10-04T18:30:35.834Z,6.00
2018-10-04T18:33:05.685Z,7.27
2018-10-04T18:35:35.351Z,6.60
2018-10-04T18:38:05.422Z,6.37
2018-10-04T18:40:35.129Z,7.80
2018-10-04T18:43:04.879Z,8.13
2018-10-04T18:45:34.690Z,8.47
2018-10-04T18:48:04.487Z,9.87
2018-10-04T18:50:34.544Z,12.50
2018-10-04T18:54:07.251Z,10.93
2018-10-04T18:56:37.131Z,12.00
2018-10-04T18:59:06.989Z,10.10
2018-10-04T19:01:36.721Z,10.17
2018-10-04T19:04:06.583Z,9.43
2018-10-04T19:06:36.317Z,8.43
2018-10-04T19:09:08.703Z,7.67
2018-10-04T19:11:39.368Z,8.10
2018-10-04T19:14:09.134Z,7.93
2018-10-04T19:16:39.044Z,7.40
2018-10-04T19:19:08.897Z,7.33
2018-10-04T19:21:38.591Z,7.77
2018-10-04T19:24:08.345Z,6.97
2018-10-04T19:26:38.208Z,7.60
2018-10-04T19:29:08.054Z,6.83
2018-10-04T19:31:38.721Z,7.40
2018-10-04T19:34:08.643Z,8.27
2018-10-04T19:36:38.331Z,8.17
2018-10-04T19:39:08.630Z,8.20
2018-10-04T19:41:38.446Z,7.60
2018-10-04T19:44:08.225Z,7.73
2018-10-04T19:46:38.133Z,7.73
2018-10-04T19:49:08.191Z,7.40
2018-10-04T19:51:37.952Z,7.67
2018-10-04T19:54:08.142Z,7.50
2018-10-04T19:56:37.843Z,6.90
2018-10-04T19:59:07.843Z,6.87
2018-10-04T20:01:37.630Z,6.50
2018-10-04T20:04:07.745Z,6.87
2018-10-04T20:06:37.585Z,6.73
2018-10-04T20:09:08.305Z,7.37
2018-10-04T20:11:38.063Z,7.37
2018-10-04T20:14:07.973Z,7.93
2018-10-04T20:16:37.844Z,8.67
2018-10-04T20:19:07.610Z,7.63
2018-10-04T20:21:37.353Z,7.27
2018-10-04T20:24:07.221Z,7.67
2018-10-04T20:26:37.021Z,6.80
2018-10-04T20:29:06.858Z,7.77
2018-10-04T20:31:36.602Z,7.33
2018-10-04T20:34:06.409Z,7.80
2018-10-04T20:36:36.159Z,7.80
2018-10-04T20:39:07.283Z,8.00
2018-10-04T20:41:37.147Z,8.50
2018-10-04T20:44:06.857Z,8.70
2018-10-04T20:46:36.629Z,8.67
2018-10-04T20:49:06.310Z,8.90
2018-10-04T20:51:36.204Z,7.77
2018-10-04T20:54:06.177Z,8.67
2018-10-04T20:56:36.208Z,8.73
2018-10-04T20:59:06.058Z,8.33
2018-10-04T21:01:35.787Z,8.60
2018-10-04T21:04:05.589Z,8.27
2018-10-04T21:06:35.365Z,8.07
2018-10-04T21:09:07.938Z,7.50
2018-10-04T21:11:38.274Z,7.97
2018-10-04T21:14:08.022Z,7.90
2018-10-04T21:16:37.879Z,8.73
2018-10-04T21:19:07.607Z,8.87
2018-10-04T21:21:37.415Z,7.87
2018-10-04T21:24:07.230Z,7.70
2018-10-04T21:26:36.968Z,8.30
2018-10-04T21:29:06.711Z,7.23
2018-10-04T21:31:36.437Z,7.50
2018-10-04T21:34:06.171Z,7.93
2018-10-04T21:36:35.913Z,7.77
2018-10-04T21:39:06.420Z,7.17
2018-10-04T21:41:36.177Z,8.10
2018-10-04T21:44:06.000Z,8.40
2018-10-04T21:46:35.714Z,7.70
2018-10-04T21:49:05.728Z,7.43
2018-10-04T21:51:35.494Z,8.07
2018-10-04T21:54:05.215Z,7.00
2018-10-04T21:56:34.923Z,7.87
2018-10-04T21:59:04.654Z,7.93
2018-10-04T22:01:34.352Z,7.53
2018-10-04T22:04:04.063Z,7.13
2018-10-04T22:06:33.747Z,7.90
2018-10-04T22:09:03.630Z,6.80
2018-10-04T22:11:33.365Z,7.47
2018-10-04T22:14:03.134Z,7.17
2018-10-04T22:16:32.835Z,7.10
2018-10-04T22:19:02.533Z,7.87
2018-10-04T22:21:32.201Z,7.30
2018-10-04T22:24:01.975Z,7.50
2018-10-04T22:26:31.703Z,7.13
2018-10-04T22:29:01.478Z,6.90
2018-10-04T22:31:31.201Z,7.70
2018-10-04T22:34:00.985Z,7.50
2018-10-04T22:36:30.675Z,7.60
2018-10-04T22:39:00.645Z,7.67
2018-10-04T22:41:30.395Z,7.03
2018-10-04T22:44:00.132Z,7.80
2018-10-04T22:46:29.830Z,7.57
2018-10-04T22:48:59.565Z,7.10
2018-10-04T22:51:29.274Z,7.57
2018-10-04T22:53:58.955Z,7.47
2018-10-04T22:56:29.223Z,6.70
2018-10-04T22:58:58.957Z,7.30
2018-10-04T23:01:28.701Z,7.20
2018-10-04T23:03:58.424Z,7.10
2018-10-04T23:06:28.106Z,7.17
2018-10-04T23:08:57.811Z,7.30
2018-10-04T23:11:27.476Z,7.30
2018-10-04T23:13:57.449Z,7.70
2018-10-04T23:16:27.145Z,7.53
2018-10-04T23:18:56.874Z,6.60
2018-10-04T23:21:26.547Z,6.73
2018-10-04T23:23:56.277Z,7.03
2018-10-04T23:26:26.252Z,6.72
2018-10-04T23:28:55.988Z,7.13
2018-10-04T23:31:28.330Z,7.20
2018-10-04T23:33:58.053Z,6.75
2018-10-04T23:36:27.810Z,7.00
2018-10-04T23:38:57.566Z,7.37
2018-10-04T23:41:27.320Z,6.70
2018-10-04T23:43:57.030Z,8.08
2018-10-04T23:46:26.758Z,7.60
2018-10-04T23:48:56.432Z,7.55
2018-10-04T23:51:26.158Z,7.95
2018-10-04T23:53:55.996Z,6.65
2018-10-04T23:56:26.365Z,6.70
2018-10-04T23:58:56.036Z,5.97
